Time;durP1;ratioP1;P1;durP2;ratioP2;P2;SDS_P1;SDS_P2;PMS_P1;PMS_P2;Temp;Humidity;BMP_temperature;BMP_pressure;BME280_temperature;BME280_humidity;BME280_pressure;Samples;Min_cycle;Max_cycle;Signal;HPM_P1;HPM_P2
2021/04/21 00:02:13;;;;;;;13.87;10.10;;;9.00;99.80;;;;;;4983670;28;20484;-84
2021/04/21 00:04:40;;;;;;;17.57;11.33;;;9.00;99.80;;;;;;5011563;28;20498;-84
2021/04/21 00:07:08;;;;;;;20.57;12.70;;;9.10;99.80;;;;;;5008812;28;20480;-83
2021/04/21 00:09:36;;;;;;;15.63;10.77;;;9.10;99.80;;;;;;5009152;28;20495;-83
2021/04/21 00:12:04;;;;;;;15.73;10.67;;;9.10;99.80;;;;;;5012677;28;20476;-83
2021/04/21 00:14:32;;;;;;;16.23;10.90;;;9.10;99.80;;;;;;5014891;28;20483;-83
2021/04/21 00:17:01;;;;;;;15.57;10.40;;;9.00;99.80;;;;;;5008172;28;20506;-83
2021/04/21 00:19:31;;;;;;;15.40;10.13;;;9.00;99.80;;;;;;5019306;28;21036;-82
2021/04/21 00:22:00;;;;;;;14.43;9.73;;;8.80;99.80;;;;;;5019866;28;21018;-83
2021/04/21 00:24:30;;;;;;;13.13;10.33;;;8.80;99.80;;;;;;5006438;28;20480;-83
2021/04/21 00:26:58;;;;;;;15.40;10.10;;;8.70;99.80;;;;;;5014399;28;20480;-83
2021/04/21 00:29:26;;;;;;;19.97;12.10;;;8.70;99.80;;;;;;5016737;28;20543;-83
2021/04/21 00:31:56;;;;;;;14.40;10.97;;;8.70;99.80;;;;;;5009574;28;20571;-82
2021/04/21 00:34:24;;;;;;;16.03;10.87;;;8.70;99.80;;;;;;4999529;28;20476;-83
2021/04/21 00:36:55;;;;;;;15.53;10.67;;;8.70;99.80;;;;;;4997318;28;20476;-83
2021/04/21 00:39:23;;;;;;;17.40;11.33;;;8.60;99.80;;;;;;4992253;28;20837;-82
2021/04/21 00:41:59;;;;;;;15.40;10.90;;;8.50;99.80;;;;;;4986264;28;20483;-83
2021/04/21 00:44:40;;;;;;;19.33;10.97;;;8.50;99.80;;;;;;4975500;28;20902;-83
2021/04/21 00:47:10;;;;;;;14.77;9.90;;;8.40;99.80;;;;;;4989621;28;20487;-82
2021/04/21 00:49:47;;;;;;;17.73;10.87;;;8.40;99.80;;;;;;4988686;28;20468;-83
2021/04/21 00:52:19;;;;;;;20.00;11.97;;;8.30;99.80;;;;;;4990603;28;20476;-83
2021/04/21 00:54:52;;;;;;;13.40;10.73;;;8.30;99.80;;;;;;4994439;28;20472;-83
2021/04/21 00:57:26;;;;;;;17.10;11.40;;;8.20;99.80;;;;;;4984853;28;20482;-82
2021/04/21 01:00:01;;;;;;;12.80;9.63;;;8.10;99.80;;;;;;4983495;28;20478;-83
2021/04/21 01:02:33;;;;;;;17.17;11.23;;;8.10;99.80;;;;;;4977667;28;20486;-83
2021/04/21 01:05:03;;;;;;;16.10;11.53;;;8.00;99.80;;;;;;4992290;28;20461;-83
2021/04/21 01:07:33;;;;;;;15.33;11.00;;;8.00;99.80;;;;;;4983325;28;20480;-82
2021/04/21 01:10:03;;;;;;;17.80;10.77;;;8.00;99.80;;;;;;4991387;28;20484;-84
2021/04/21 01:12:32;;;;;;;14.37;10.10;;;8.00;99.80;;;;;;4984816;28;20473;-83
2021/04/21 01:15:00;;;;;;;15.17;10.30;;;8.00;99.80;;;;;;4979826;28;21080;-83
2021/04/21 01:17:33;;;;;;;16.37;10.57;;;8.00;99.80;;;;;;4998270;28;20485;-84
2021/04/21 01:20:15;;;;;;;17.60;11.70;;;7.90;99.80;;;;;;4991345;28;20875;-83
2021/04/21 01:23:16;;;;;;;15.47;11.87;;;7.90;99.80;;;;;;4995411;28;20488;-83
2021/04/21 01:25:56;;;;;;;15.20;11.27;;;7.80;99.80;;;;;;4975566;28;21006;-82
2021/04/21 01:28:27;;;;;;;17.40;13.33;;;7.80;99.80;;;;;;4978133;28;20482;-82
2021/04/21 01:30:55;;;;;;;19.00;12.70;;;7.80;99.80;;;;;;4988965;28;20471;-83
2021/04/21 01:33:25;;;;;;;19.70;12.47;;;7.70;99.80;;;;;;4991112;28;20549;-84
2021/04/21 01:36:00;;;;;;;15.27;11.43;;;7.70;99.80;;;;;;4994589;28;20469;-83
2021/04/21 01:38:29;;;;;;;19.93;11.37;;;7.60;99.80;;;;;;4989723;28;20474;-83
2021/04/21 01:41:03;;;;;;;17.40;12.37;;;7.60;99.80;;;;;;4995247;28;20832;-83
2021/04/21 01:43:35;;;;;;;17.73;12.13;;;7.50;99.80;;;;;;4986995;28;20483;-84
2021/04/21 01:46:03;;;;;;;18.60;12.77;;;7.50;99.80;;;;;;4991761;28;20480;-82
2021/04/21 01:48:34;;;;;;;18.00;13.20;;;7.50;99.80;;;;;;4992607;28;20475;-83
2021/04/21 01:51:08;;;;;;;17.97;11.87;;;7.40;99.80;;;;;;4996177;28;20929;-84
2021/04/21 01:53:40;;;;;;;16.97;11.53;;;7.40;99.80;;;;;;4997022;28;20845;-83
2021/04/21 01:56:12;;;;;;;17.40;12.40;;;7.30;99.80;;;;;;5012668;28;21230;-83
2021/04/21 01:59:03;;;;;;;16.87;12.10;;;7.30;99.80;;;;;;5008711;28;20472;-84
2021/04/21 02:01:41;;;;;;;19.50;12.30;;;7.30;99.80;;;;;;5010006;28;20557;-83
2021/04/21 02:04:18;;;;;;;15.30;10.63;;;7.30;99.80;;;;;;5014122;28;20475;-83
2021/04/21 02:06:55;;;;;;;19.77;12.13;;;7.30;99.80;;;;;;5013869;28;20477;-83
2021/04/21 02:09:54;;;;;;;17.23;11.60;;;7.20;99.80;;;;;;5019651;28;20996;-83
2021/04/21 02:12:46;;;;;;;17.47;11.30;;;7.20;99.80;;;;;;5004685;28;20977;-84
2021/04/21 02:15:21;;;;;;;17.20;11.17;;;7.20;99.80;;;;;;4994058;28;20455;-83
2021/04/21 02:17:56;;;;;;;21.07;11.70;;;7.20;99.80;;;;;;4996065;28;20978;-82
2021/04/21 02:20:31;;;;;;;18.63;11.37;;;7.20;99.80;;;;;;5011157;28;20988;-82
2021/04/21 02:23:03;;;;;;;18.80;11.73;;;7.20;99.80;;;;;;5008167;28;20572;-82
2021/04/21 02:25:47;;;;;;;17.70;11.97;;;7.30;99.80;;;;;;5000514;28;20881;-82
2021/04/21 02:28:20;;;;;;;15.43;11.47;;;7.20;99.80;;;;;;5000721;28;20487;-82
2021/04/21 02:30:56;;;;;;;18.43;10.40;;;7.20;99.80;;;;;;5002556;28;20491;-82
2021/04/21 02:33:37;;;;;;;19.57;12.03;;;7.20;99.80;;;;;;5004178;28;20534;-83
2021/04/21 02:36:10;;;;;;;22.03;13.57;;;7.20;99.80;;;;;;4993117;28;20480;-83
2021/04/21 02:38:43;;;;;;;20.03;13.87;;;7.10;99.80;;;;;;4991926;28;20483;-82
2021/04/21 02:41:14;;;;;;;20.50;13.00;;;7.00;99.80;;;;;;4989768;28;20534;-83
2021/04/21 02:44:04;;;;;;;20.43;12.93;;;7.00;99.80;;;;;;4983990;28;20491;-84
2021/04/21 02:46:37;;;;;;;18.17;12.20;;;7.00;99.80;;;;;;4984085;28;20506;-83
2021/04/21 02:49:20;;;;;;;20.90;13.27;;;6.90;99.80;;;;;;4994842;28;20479;-82
2021/04/21 02:51:54;;;;;;;20.53;12.40;;;7.00;99.80;;;;;;4997272;28;20834;-84
2021/04/21 02:54:30;;;;;;;18.00;12.40;;;6.90;99.80;;;;;;5005742;28;20478;-82
2021/04/21 02:57:05;;;;;;;23.57;13.77;;;6.90;99.80;;;;;;5001712;28;20488;-82
2021/04/21 02:59:39;;;;;;;15.87;11.97;;;6.90;99.80;;;;;;4972109;28;20507;-82
2021/04/21 03:02:10;;;;;;;20.70;13.10;;;6.90;99.80;;;;;;4988846;28;20561;-83
2021/04/21 03:04:44;;;;;;;22.57;14.10;;;6.80;99.80;;;;;;5007345;28;20525;-82
2021/04/21 03:07:18;;;;;;;21.70;12.63;;;6.80;99.80;;;;;;5002952;28;20569;-83
2021/04/21 03:09:51;;;;;;;18.50;12.33;;;6.70;99.80;;;;;;5002493;28;20472;-82
2021/04/21 03:12:24;;;;;;;18.37;11.70;;;6.60;99.80;;;;;;5001521;28;20468;-83
2021/04/21 03:14:55;;;;;;;20.50;13.00;;;6.60;99.80;;;;;;5009985;28;20518;-84
2021/04/21 03:17:23;;;;;;;17.40;11.57;;;6.60;99.80;;;;;;5008814;28;20487;-83
2021/04/21 03:19:53;;;;;;;19.43;12.60;;;6.50;99.80;;;;;;5017354;28;20515;-83
2021/04/21 03:22:23;;;;;;;19.83;12.70;;;6.50;99.80;;;;;;5012469;28;20458;-83
2021/04/21 03:24:57;;;;;;;15.30;11.43;;;6.40;99.80;;;;;;5009722;28;20475;-84
2021/04/21 03:27:31;;;;;;;20.83;12.77;;;6.40;99.80;;;;;;4995308;28;20494;-84
2021/04/21 03:30:02;;;;;;;20.37;12.73;;;6.30;99.80;;;;;;4993772;28;20473;-83
2021/04/21 03:32:35;;;;;;;22.50;12.90;;;6.30;99.80;;;;;;5013112;28;20998;-82
2021/04/21 03:35:04;;;;;;;18.77;12.73;;;6.30;99.80;;;;;;5005321;28;20469;-82
2021/04/21 03:37:40;;;;;;;19.63;12.13;;;6.30;99.80;;;;;;5000114;28;20484;-82
2021/04/21 03:40:09;;;;;;;17.60;12.00;;;6.30;99.80;;;;;;4994551;28;20497;-83
2021/04/21 03:42:38;;;;;;;25.07;13.33;;;6.30;99.80;;;;;;5001286;28;20477;-82
2021/04/21 03:45:06;;;;;;;20.47;12.97;;;6.30;99.80;;;;;;5004128;28;20565;-83
2021/04/21 03:47:35;;;;;;;18.40;12.40;;;6.20;99.80;;;;;;5007581;28;20470;-82
2021/04/21 03:50:04;;;;;;;18.63;12.03;;;6.20;99.80;;;;;;5008368;28;20483;-83
2021/04/21 03:52:34;;;;;;;19.23;12.87;;;6.20;99.80;;;;;;5008441;28;20481;-82
2021/04/21 03:55:02;;;;;;;18.50;11.60;;;6.20;99.80;;;;;;4994323;28;20489;-82
2021/04/21 03:57:34;;;;;;;22.80;13.20;;;6.30;99.80;;;;;;5002151;28;20500;-82
2021/04/21 04:00:04;;;;;;;19.80;12.67;;;6.30;99.80;;;;;;5000154;28;20482;-82
2021/04/21 04:02:38;;;;;;;19.40;12.63;;;6.40;99.80;;;;;;5007513;28;21009;-83
2021/04/21 04:05:08;;;;;;;21.70;13.70;;;6.40;99.80;;;;;;5017312;28;20517;-83
2021/04/21 04:07:41;;;;;;;24.87;15.27;;;6.30;99.80;;;;;;5011647;28;20830;-83
2021/04/21 04:10:13;;;;;;;21.27;13.70;;;6.30;99.80;;;;;;4980376;28;20986;-83
2021/04/21 04:12:44;;;;;;;20.40;14.10;;;6.30;99.80;;;;;;4982520;28;20483;-84
2021/04/21 04:15:13;;;;;;;24.87;14.23;;;6.30;99.80;;;;;;4980029;28;20565;-83
2021/04/21 04:17:49;;;;;;;19.83;13.13;;;6.20;99.80;;;;;;4989374;28;20473;-83
2021/04/21 04:20:17;;;;;;;22.70;14.10;;;6.20;99.80;;;;;;4996351;28;20470;-83
2021/04/21 04:22:48;;;;;;;22.33;13.33;;;6.20;99.80;;;;;;4991284;28;20479;-83
2021/04/21 04:25:18;;;;;;;25.20;13.63;;;6.20;99.80;;;;;;4987620;28;20475;-85
2021/04/21 04:27:46;;;;;;;23.17;14.70;;;6.20;99.80;;;;;;4983308;28;20850;-83
2021/04/21 04:30:14;;;;;;;23.37;15.17;;;6.10;99.80;;;;;;4986981;28;20485;-84
2021/04/21 04:32:43;;;;;;;21.30;13.90;;;6.10;99.80;;;;;;4995199;28;20468;-84
2021/04/21 04:35:12;;;;;;;23.50;14.60;;;6.10;99.80;;;;;;4994394;28;20484;-83
2021/04/21 04:37:42;;;;;;;26.20;15.67;;;6.10;99.80;;;;;;5004509;28;20487;-83
2021/04/21 04:40:12;;;;;;;25.67;15.33;;;6.10;99.80;;;;;;4994384;28;20481;-82
2021/04/21 04:42:40;;;;;;;21.27;14.13;;;6.10;99.80;;;;;;5000422;28;20909;-84
2021/04/21 04:45:08;;;;;;;22.50;14.70;;;6.10;99.80;;;;;;5002581;28;20483;-84
2021/04/21 04:47:44;;;;;;;23.17;15.13;;;6.10;99.80;;;;;;5004137;28;20566;-84
2021/04/21 04:50:13;;;;;;;24.10;14.43;;;6.20;99.80;;;;;;5003538;28;20470;-83
2021/04/21 04:52:42;;;;;;;25.07;14.63;;;6.20;99.80;;;;;;5011863;28;20513;-83
2021/04/21 04:55:11;;;;;;;20.13;13.67;;;6.20;99.80;;;;;;4984571;28;20515;-84
2021/04/21 04:57:40;;;;;;;26.83;14.60;;;6.20;99.80;;;;;;4989232;28;20482;-83
2021/04/21 05:00:09;;;;;;;22.23;14.00;;;6.30;99.80;;;;;;4975157;28;20465;-84
2021/04/21 05:02:40;;;;;;;23.17;14.93;;;6.30;99.80;;;;;;4981060;28;21045;-86
2021/04/21 05:05:10;;;;;;;24.07;14.60;;;6.40;99.80;;;;;;4983722;28;20500;-86
2021/04/21 05:07:43;;;;;;;24.67;15.00;;;6.50;99.80;;;;;;4997143;28;20487;-87
2021/04/21 05:10:18;;;;;;;22.37;13.47;;;6.50;99.80;;;;;;4996640;28;20478;-87
2021/04/21 05:12:48;;;;;;;22.03;14.90;;;6.60;99.80;;;;;;4989428;28;20475;-87
2021/04/21 05:16:01;;;;;;;21.30;13.37;;;6.60;99.80;;;;;;4978350;28;20491;-87
2021/04/21 05:19:01;;;;;;;22.27;14.50;;;6.70;99.80;;;;;;5004176;28;20474;-88
2021/04/21 05:22:00;;;;;;;22.43;15.53;;;6.70;99.80;;;;;;5005552;28;20982;-88
2021/04/21 05:25:00;;;;;;;20.60;14.10;;;6.80;99.80;;;;;;4983853;28;20574;-87
2021/04/21 05:27:59;;;;;;;23.20;15.40;;;7.00;99.80;;;;;;4953816;28;20472;-87
2021/04/21 05:31:03;;;;;;;24.50;15.83;;;7.00;99.80;;;;;;5006005;28;20471;-88
2021/04/21 05:34:06;;;;;;;23.23;15.97;;;7.10;99.80;;;;;;5006009;28;20568;-86
2021/04/21 05:37:12;;;;;;;24.70;15.20;;;7.10;99.80;;;;;;4989752;28;20480;-86
2021/04/21 05:40:44;;;;;;;21.63;14.47;;;7.20;99.80;;;;;;4972235;28;20479;-86
2021/04/21 05:44:02;;;;;;;27.57;15.37;;;7.20;99.80;;;;;;4992892;28;20462;-86
2021/04/21 05:47:26;;;;;;;25.53;15.97;;;7.30;99.80;;;;;;4984234;28;20475;-86
2021/04/21 05:50:31;;;;;;;22.13;14.80;;;7.40;99.80;;;;;;5012197;28;20470;-86
2021/04/21 05:53:39;;;;;;;25.17;16.30;;;7.50;99.80;;;;;;4983926;28;20476;-88
2021/04/21 05:56:40;;;;;;;23.77;15.50;;;7.60;99.80;;;;;;4981550;28;20471;-88
2021/04/21 05:59:50;;;;;;;23.63;15.30;;;7.70;99.80;;;;;;4988679;28;20461;-89
2021/04/21 06:02:19;;;;;;;23.90;15.10;;;7.80;99.80;;;;;;4995095;28;20478;-88
2021/04/21 06:04:46;;;;;;;26.17;16.23;;;7.90;99.80;;;;;;4980706;28;20566;-88
2021/04/21 06:07:14;;;;;;;23.73;15.80;;;7.90;99.80;;;;;;4987497;28;20477;-88
2021/04/21 06:09:41;;;;;;;27.30;15.47;;;8.00;99.80;;;;;;4988879;28;20481;-88
2021/04/21 06:12:11;;;;;;;27.57;15.97;;;8.10;99.80;;;;;;4997378;28;20821;-88
2021/04/21 06:14:39;;;;;;;22.90;15.13;;;8.20;99.80;;;;;;5005795;28;20467;-88
2021/04/21 06:17:06;;;;;;;24.93;15.30;;;8.40;99.80;;;;;;5007922;28;20474;-88
2021/04/21 06:19:33;;;;;;;21.83;14.93;;;8.50;99.80;;;;;;5004618;28;20476;-89
2021/04/21 06:22:00;;;;;;;22.67;15.73;;;8.60;99.80;;;;;;5007566;28;20542;-89
2021/04/21 06:24:29;;;;;;;24.00;16.70;;;8.70;99.80;;;;;;4995669;28;20476;-89
2021/04/21 06:27:06;;;;;;;27.93;16.00;;;8.80;99.80;;;;;;5002300;28;20528;-89
2021/04/21 06:29:34;;;;;;;23.70;16.20;;;8.80;99.80;;;;;;4989348;28;21010;-88
2021/04/21 06:32:03;;;;;;;22.40;15.40;;;8.80;99.80;;;;;;5014811;28;20882;-89
2021/04/21 06:34:31;;;;;;;23.30;17.37;;;8.90;99.80;;;;;;5005816;28;21006;-88
2021/04/21 06:37:00;;;;;;;26.00;15.67;;;9.00;99.80;;;;;;4991547;28;20488;-89
2021/04/21 06:39:31;;;;;;;23.97;16.60;;;9.00;99.80;;;;;;4996693;28;20989;-88
2021/04/21 06:41:59;;;;;;;23.87;16.30;;;9.10;99.80;;;;;;4990410;28;20469;-89
2021/04/21 06:44:42;;;;;;;18.83;14.70;;;9.20;99.80;;;;;;4971907;28;20470;-89
2021/04/21 06:47:09;;;;;;;21.93;14.90;;;9.30;99.80;;;;;;4996878;28;20491;-89
2021/04/21 06:49:36;;;;;;;24.10;16.00;;;9.30;99.80;;;;;;5001619;28;20490;-89
2021/04/21 06:52:12;;;;;;;24.63;15.57;;;9.50;99.80;;;;;;5012600;28;20466;-88
2021/04/21 06:54:39;;;;;;;20.17;14.10;;;9.50;99.80;;;;;;4998368;28;20470;-89
2021/04/21 06:57:07;;;;;;;21.83;14.40;;;9.60;99.80;;;;;;4991816;28;20469;-89
2021/04/21 06:59:35;;;;;;;22.83;15.50;;;9.80;99.80;;;;;;4990695;28;20480;-88
2021/04/21 07:02:02;;;;;;;23.47;15.90;;;9.90;99.80;;;;;;4977616;28;20590;-88
2021/04/21 07:04:34;;;;;;;21.83;14.70;;;10.00;99.80;;;;;;5004560;28;20503;-88
2021/04/21 07:07:03;;;;;;;23.77;14.37;;;10.00;99.80;;;;;;4999297;28;20574;-88
2021/04/21 07:09:30;;;;;;;23.90;16.00;;;10.10;99.80;;;;;;4968184;28;20840;-88
2021/04/21 07:11:59;;;;;;;23.90;15.53;;;10.20;99.80;;;;;;4994213;28;20481;-88
2021/04/21 07:14:28;;;;;;;22.60;15.50;;;10.20;99.80;;;;;;4977456;28;20467;-89
2021/04/21 07:16:58;;;;;;;25.33;15.33;;;10.30;99.80;;;;;;4970784;28;20529;-89
2021/04/21 07:19:26;;;;;;;24.40;16.37;;;10.40;99.80;;;;;;4985940;28;20518;-89
2021/04/21 07:21:55;;;;;;;21.57;15.80;;;10.40;99.80;;;;;;4977277;28;20475;-88
2021/04/21 07:24:29;;;;;;;24.20;16.20;;;10.50;99.80;;;;;;4973473;28;20482;-89
2021/04/21 07:26:58;;;;;;;23.20;15.67;;;10.60;99.80;;;;;;4969230;28;21120;-89
2021/04/21 07:29:26;;;;;;;24.93;15.50;;;10.70;99.80;;;;;;4965335;28;20476;-89
2021/04/21 07:31:54;;;;;;;25.77;15.23;;;10.80;99.80;;;;;;4987007;28;20553;-89
2021/04/21 07:34:31;;;;;;;22.33;14.13;;;10.90;99.80;;;;;;4989955;28;20472;-88
2021/04/21 07:36:59;;;;;;;19.93;15.10;;;11.10;99.80;;;;;;4979982;28;20547;-85
2021/04/21 07:39:35;;;;;;;22.90;14.73;;;11.20;99.80;;;;;;4992871;28;20857;-84
2021/04/21 07:42:03;;;;;;;23.20;14.20;;;11.30;99.80;;;;;;4961022;28;21304;-89
2021/04/21 07:44:36;;;;;;;21.70;14.30;;;11.40;99.80;;;;;;4970026;28;20481;-89
2021/04/21 07:47:13;;;;;;;22.03;14.30;;;11.50;99.80;;;;;;4986328;28;20497;-88
2021/04/21 07:49:44;;;;;;;22.47;14.20;;;11.50;99.80;;;;;;4971564;28;20474;-89
2021/04/21 07:52:23;;;;;;;21.13;13.90;;;11.60;99.80;;;;;;4983289;28;20477;-89
2021/04/21 07:54:50;;;;;;;20.90;14.90;;;11.70;99.80;;;;;;4952336;28;20489;-89
2021/04/21 07:57:19;;;;;;;20.17;14.67;;;11.90;99.80;;;;;;4982382;28;20476;-89
2021/04/21 07:59:47;;;;;;;19.27;14.57;;;11.90;99.80;;;;;;4976723;28;20996;-88
2021/04/21 08:02:17;;;;;;;23.83;15.20;;;12.00;99.80;;;;;;4999058;28;20484;-88
2021/04/21 08:04:50;;;;;;;21.90;14.20;;;12.10;99.80;;;;;;4986278;28;20551;-89
2021/04/21 08:07:35;;;;;;;18.23;13.60;;;12.30;99.80;;;;;;4984720;28;20487;-89
2021/04/21 08:10:06;;;;;;;24.03;13.87;;;12.40;99.80;;;;;;4977512;28;20576;-88
2021/04/21 08:12:35;;;;;;;16.60;13.03;;;12.50;99.80;;;;;;4971689;28;20472;-88
2021/04/21 08:15:05;;;;;;;16.03;12.13;;;12.70;99.80;;;;;;4985303;28;20507;-89
2021/04/21 08:17:50;;;;;;;21.73;13.17;;;12.90;99.80;;;;;;4997785;28;20827;-89
2021/04/21 08:20:24;;;;;;;20.03;11.50;;;13.00;99.80;;;;;;4988977;28;20530;-89
2021/04/21 08:22:56;;;;;;;16.60;12.07;;;13.10;99.80;;;;;;4975728;28;20858;-88
2021/04/21 08:25:23;;;;;;;18.13;12.60;;;13.30;99.80;;;;;;4994883;28;20546;-89
2021/04/21 08:27:53;;;;;;;16.73;12.17;;;13.30;99.60;;;;;;4975646;28;20492;-89
2021/04/21 08:30:21;;;;;;;17.77;12.47;;;13.30;99.80;;;;;;4959766;28;21258;-89
2021/04/21 08:32:48;;;;;;;19.63;13.40;;;13.20;99.80;;;;;;4994642;28;20473;-89
2021/04/21 08:35:17;;;;;;;21.50;12.57;;;13.20;99.80;;;;;;4992658;28;20479;-89
2021/04/21 08:37:45;;;;;;;19.87;13.30;;;13.40;99.80;;;;;;4994806;28;20564;-89
2021/04/21 08:40:14;;;;;;;21.60;14.73;;;13.40;99.80;;;;;;4989435;28;21012;-88
2021/04/21 08:42:42;;;;;;;19.47;14.20;;;13.50;99.80;;;;;;4992109;28;20528;-88
2021/04/21 08:45:11;;;;;;;18.53;13.40;;;13.60;99.80;;;;;;4963582;28;20479;-89
2021/04/21 08:47:40;;;;;;;21.00;14.43;;;13.70;99.80;;;;;;4989762;28;20481;-89
2021/04/21 08:50:10;;;;;;;18.53;13.00;;;13.90;99.80;;;;;;4994817;28;20468;-89
2021/04/21 08:52:46;;;;;;;20.40;13.67;;;14.10;99.20;;;;;;4957885;28;20484;-89
2021/04/21 08:55:16;;;;;;;22.03;13.37;;;14.30;98.20;;;;;;4947702;28;21272;-88
2021/04/21 08:57:44;;;;;;;18.20;13.57;;;14.40;97.70;;;;;;4966834;28;20969;-88
2021/04/21 09:00:14;;;;;;;20.40;14.17;;;14.60;96.20;;;;;;4982630;28;20887;-89
2021/04/21 09:02:42;;;;;;;19.03;14.50;;;14.70;96.20;;;;;;4985079;28;20473;-88
2021/04/21 09:05:10;;;;;;;19.97;14.50;;;14.80;96.30;;;;;;5001248;28;20527;-89
2021/04/21 09:07:38;;;;;;;20.73;14.83;;;15.00;96.20;;;;;;4995243;28;20569;-89
2021/04/21 09:10:07;;;;;;;20.13;14.93;;;15.20;94.80;;;;;;5000576;28;20492;-89
2021/04/21 09:12:35;;;;;;;21.40;14.23;;;15.30;93.40;;;;;;4970949;28;20470;-89
2021/04/21 09:15:02;;;;;;;18.20;14.73;;;15.40;93.40;;;;;;4977723;28;21091;-89
2021/04/21 09:17:30;;;;;;;17.97;13.90;;;15.70;93.90;;;;;;4975544;28;20478;-89
2021/04/21 09:19:58;;;;;;;20.97;16.03;;;15.80;91.40;;;;;;5003076;28;20467;-89
2021/04/21 09:22:26;;;;;;;21.43;16.00;;;16.00;91.70;;;;;;4996697;28;20565;-89
2021/04/21 09:24:56;;;;;;;24.73;15.07;;;16.00;91.70;;;;;;4977187;28;20473;-89
2021/04/21 09:27:33;;;;;;;23.67;15.43;;;16.20;91.10;;;;;;4976796;28;21360;-89
2021/04/21 09:30:14;;;;;;;23.70;15.50;;;16.30;87.70;;;;;;4984579;28;20462;-89
2021/04/21 09:32:47;;;;;;;22.57;14.70;;;16.50;89.10;;;;;;4978594;28;20478;-89
2021/04/21 09:35:25;;;;;;;21.73;14.83;;;16.50;89.20;;;;;;4966247;28;20875;-88
2021/04/21 09:37:53;;;;;;;18.20;13.27;;;16.60;88.30;;;;;;4973251;28;20487;-89
2021/04/21 09:40:34;;;;;;;22.37;14.73;;;16.60;88.30;;;;;;4979363;28;20577;-89
2021/04/21 09:43:02;;;;;;;18.13;12.87;;;16.70;86.70;;;;;;4971366;28;20821;-89
2021/04/21 09:45:38;;;;;;;18.33;13.77;;;16.90;86.10;;;;;;4988965;28;20496;-90
2021/04/21 09:48:07;;;;;;;23.57;14.07;;;16.80;85.30;;;;;;4989576;28;20457;-89
2021/04/21 09:50:37;;;;;;;22.20;13.77;;;17.00;86.00;;;;;;5001325;28;21322;-89
2021/04/21 09:53:18;;;;;;;23.20;14.83;;;17.30;82.40;;;;;;5002083;28;20462;-90
2021/04/21 09:56:01;;;;;;;22.50;14.40;;;17.30;81.80;;;;;;4986270;28;20575;-88
2021/04/21 09:58:30;;;;;;;19.40;14.50;;;17.50;82.80;;;;;;4959557;28;20467;-89
2021/04/21 10:00:57;;;;;;;25.30;17.63;;;17.50;82.80;;;;;;4965178;28;20595;-89
2021/04/21 10:03:24;;;;;;;25.17;18.00;;;17.60;80.60;;;;;;4997625;28;20576;-89
2021/04/21 10:05:52;;;;;;;26.33;16.93;;;17.90;82.20;;;;;;4972998;28;20561;-89
2021/04/21 10:08:22;;;;;;;21.33;16.30;;;17.90;82.20;;;;;;4990718;28;20484;-89
2021/04/21 10:11:01;;;;;;;22.67;17.10;;;18.20;80.30;;;;;;4939699;28;21815;-89
2021/04/21 10:13:41;;;;;;;20.87;15.80;;;18.30;78.50;;;;;;4963516;28;20487;-89
2021/04/21 10:16:10;;;;;;;23.43;16.60;;;18.60;79.10;;;;;;4984489;28;20514;-89
2021/04/21 10:18:38;;;;;;;21.40;16.53;;;18.60;79.20;;;;;;5000234;28;20471;-89
2021/04/21 10:21:11;;;;;;;23.53;16.27;;;19.20;76.80;;;;;;4994130;28;20483;-89
2021/04/21 10:23:39;;;;;;;18.60;14.00;;;19.40;77.10;;;;;;5002684;28;20473;-89
2021/04/21 10:26:08;;;;;;;25.40;15.73;;;19.40;77.10;;;;;;4984112;28;20559;-89
2021/04/21 10:28:37;;;;;;;24.17;16.40;;;19.60;75.90;;;;;;4974087;28;20486;-85
2021/04/21 10:31:07;;;;;;;21.90;15.23;;;19.50;75.50;;;;;;4990058;28;20464;-85
2021/04/21 10:33:35;;;;;;;17.43;13.63;;;19.70;76.10;;;;;;5004819;28;21004;-85
2021/04/21 10:36:03;;;;;;;22.33;16.00;;;19.60;76.90;;;;;;4979492;28;20468;-84
2021/04/21 10:38:31;;;;;;;22.53;16.03;;;19.80;74.60;;;;;;4966139;28;20474;-85
2021/04/21 10:41:20;;;;;;;21.40;16.90;;;20.00;75.40;;;;;;4981994;28;20549;-85
2021/04/21 10:43:48;;;;;;;22.83;14.93;;;20.40;74.10;;;;;;4956027;28;20476;-85
2021/04/21 10:46:16;;;;;;;22.00;15.97;;;20.60;71.50;;;;;;4981862;28;20484;-84
2021/04/21 10:48:46;;;;;;;21.90;17.10;;;20.50;70.80;;;;;;4990796;28;20565;-85
2021/04/21 10:51:39;;;;;;;23.63;16.07;;;20.50;70.90;;;;;;4994364;28;20486;-85
2021/04/21 10:54:07;;;;;;;19.67;15.40;;;21.60;72.30;;;;;;4969346;28;20544;-85
2021/04/21 10:56:37;;;;;;;20.57;15.13;;;21.60;72.30;;;;;;4985915;28;20895;-85
2021/04/21 10:59:05;;;;;;;19.47;14.93;;;22.00;68.90;;;;;;4978849;28;20515;-85
2021/04/21 11:01:40;;;;;;;24.03;16.47;;;22.30;68.60;;;;;;4992329;28;20459;-85
2021/04/21 11:04:12;;;;;;;18.77;14.13;;;22.70;67.50;;;;;;4994777;28;20567;-85
2021/04/21 11:06:47;;;;;;;20.70;14.63;;;22.70;67.40;;;;;;4990192;28;20492;-86
2021/04/21 11:09:19;;;;;;;24.53;15.30;;;22.90;66.90;;;;;;4984704;28;21340;-86
2021/04/21 11:11:48;;;;;;;18.60;14.80;;;22.90;66.60;;;;;;4983062;28;21049;-85
2021/04/21 11:14:16;;;;;;;19.00;13.30;;;23.00;66.60;;;;;;4965827;28;20469;-85
2021/04/21 11:16:45;;;;;;;14.67;12.27;;;23.60;64.60;;;;;;4976816;28;20489;-85
2021/04/21 11:19:29;;;;;;;17.77;14.20;;;23.60;64.70;;;;;;4986097;28;20524;-84
2021/04/21 11:22:27;;;;;;;18.07;14.80;;;24.00;62.30;;;;;;4989291;28;20480;-85
2021/04/21 11:25:23;;;;;;;25.43;15.87;;;23.90;62.20;;;;;;4916833;28;21248;-85
2021/04/21 11:27:52;;;;;;;20.83;15.23;;;23.30;63.80;;;;;;4962310;28;20556;-85
2021/04/21 11:30:56;;;;;;;21.13;13.33;;;23.00;66.00;;;;;;4984212;28;20575;-86
2021/04/21 11:33:57;;;;;;;17.70;14.30;;;23.10;65.80;;;;;;4984324;28;20552;-86
2021/04/21 11:36:49;;;;;;;17.77;14.93;;;23.00;66.60;;;;;;4984715;28;21401;-85
2021/04/21 11:39:31;;;;;;;20.80;14.47;;;21.70;69.20;;;;;;4988302;28;20519;-86
2021/04/21 11:42:16;;;;;;;24.07;15.60;;;21.60;69.20;;;;;;4988789;28;20530;-85
2021/04/21 11:44:54;;;;;;;17.87;13.37;;;20.90;70.60;;;;;;4977064;28;20489;-85
2021/04/21 11:47:32;;;;;;;18.27;15.40;;;20.50;71.50;;;;;;4984637;28;20490;-85
2021/04/21 11:50:08;;;;;;;17.57;14.50;;;20.50;72.40;;;;;;4966519;28;20999;-85
2021/04/21 11:52:57;;;;;;;17.30;13.90;;;20.90;72.00;;;;;;4976408;28;20477;-86
2021/04/21 11:55:27;;;;;;;21.80;15.93;;;21.60;70.60;;;;;;4979426;28;20490;-85
2021/04/21 11:57:56;;;;;;;18.67;14.70;;;23.60;66.70;;;;;;4973416;28;20486;-85
2021/04/21 12:00:26;;;;;;;18.20;15.10;;;27.50;55.70;;;;;;4971547;28;21268;-85
2021/04/21 12:02:55;;;;;;;19.30;14.07;;;27.60;54.20;;;;;;4989811;28;21098;-85
2021/04/21 12:05:25;;;;;;;13.73;11.40;;;27.80;55.30;;;;;;4988450;28;20469;-85
2021/04/21 12:07:53;;;;;;;18.87;15.40;;;28.30;52.20;;;;;;4992035;28;20532;-86
2021/04/21 12:10:21;;;;;;;21.63;13.87;;;28.30;52.10;;;;;;4971865;28;20490;-86
2021/04/21 12:12:49;;;;;;;17.87;13.93;;;30.70;51.20;;;;;;4974094;28;20561;-85
2021/04/21 12:15:17;;;;;;;18.10;12.80;;;30.70;51.10;;;;;;4956074;28;20473;-86
2021/04/21 12:17:54;;;;;;;19.53;14.87;;;30.20;49.30;;;;;;4987492;28;20488;-85
2021/04/21 12:20:28;;;;;;;15.70;13.33;;;30.50;47.80;;;;;;4961409;28;20489;-86
2021/04/21 12:22:56;;;;;;;16.87;13.03;;;29.10;49.70;;;;;;4973547;28;20479;-86
2021/04/21 12:25:26;;;;;;;14.60;12.70;;;28.50;50.70;;;;;;4974970;28;20476;-85
2021/04/21 12:27:54;;;;;;;17.10;13.73;;;29.40;48.10;;;;;;4968138;28;20870;-87
2021/04/21 12:30:25;;;;;;;16.23;12.20;;;30.00;47.60;;;;;;4966876;28;20552;-85
2021/04/21 12:33:11;;;;;;;13.50;11.97;;;31.40;48.40;;;;;;4980682;28;20469;-85
2021/04/21 12:35:39;;;;;;;13.60;12.00;;;33.00;44.00;;;;;;5007424;28;20484;-85
2021/04/21 12:38:07;;;;;;;15.20;11.07;;;;;;;;;;4998598;28;20465;-86
2021/04/21 12:40:35;;;;;;;13.70;10.10;;;34.40;42.00;;;;;;4982229;28;20637;-83
2021/04/21 12:43:10;;;;;;;11.53;10.27;;;34.70;40.30;;;;;;4974236;28;20489;-86
2021/04/21 12:45:38;;;;;;;11.30;10.10;;;34.50;40.50;;;;;;4961381;28;20489;-86
2021/04/21 12:48:22;;;;;;;11.73;10.50;;;34.40;39.70;;;;;;4995765;28;20520;-86
2021/04/21 12:50:52;;;;;;;11.10;9.90;;;34.40;40.80;;;;;;4981425;28;20565;-86
2021/04/21 12:53:21;;;;;;;12.13;9.10;;;34.60;38.70;;;;;;4989467;28;20476;-85
2021/04/21 12:55:49;;;;;;;10.73;8.80;;;34.00;39.20;;;;;;4975251;28;20460;-85
2021/04/21 12:58:32;;;;;;;9.30;8.40;;;34.10;38.20;;;;;;4967108;28;21040;-86
2021/04/21 13:01:10;;;;;;;12.53;9.77;;;34.10;38.30;;;;;;4953743;28;20471;-84
2021/04/21 13:03:37;;;;;;;12.40;10.50;;;34.80;41.30;;;;;;4975381;28;20542;-86
2021/04/21 13:06:06;;;;;;;16.63;10.50;;;34.80;39.60;;;;;;4975552;28;20492;-84
2021/04/21 13:08:37;;;;;;;12.10;10.73;;;34.80;41.50;;;;;;4966564;28;20481;-85